Time;durP1;ratioP1;P1;durP2;ratioP2;P2;SDS_P1;SDS_P2;PMS_P1;PMS_P2;Temp;Humidity;BMP_temperature;BMP_pressure;BME280_temperature;BME280_humidity;BME280_pressure;Samples;Min_cycle;Max_cycle;Signal;HPM_P1;HPM_P2
2023/05/01 00:02:34;;;;;;;2.15;1.67;;;7.70;99.90;;;;;;5128866;28;20050;-71
2023/05/01 00:05:09;;;;;;;2.67;2.45;;;7.60;99.90;;;;;;5143150;28;20060;-71
2023/05/01 00:07:43;;;;;;;1.90;1.75;;;7.50;99.90;;;;;;5142464;28;20040;-71
2023/05/01 00:10:19;;;;;;;2.15;1.95;;;7.50;99.90;;;;;;5150805;28;20324;-71
2023/05/01 00:12:53;;;;;;;2.58;2.33;;;7.50;99.90;;;;;;5150516;28;20347;-70
2023/05/01 00:15:29;;;;;;;2.03;1.80;;;7.50;99.90;;;;;;5121668;28;20609;-71
2023/05/01 00:18:06;;;;;;;2.35;1.75;;;7.50;99.90;;;;;;5152969;28;20492;-67
2023/05/01 00:20:41;;;;;;;2.03;1.77;;;7.50;99.90;;;;;;5135655;28;20454;-70
2023/05/01 00:23:13;;;;;;;3.83;2.58;;;7.40;99.90;;;;;;5115534;28;20046;-68
2023/05/01 00:25:46;;;;;;;2.83;2.25;;;7.40;99.90;;;;;;5151799;28;20648;-68
2023/05/01 00:28:19;;;;;;;2.22;2.05;;;7.30;99.90;;;;;;5151049;28;20057;-71
2023/05/01 00:30:56;;;;;;;3.35;1.95;;;7.30;99.90;;;;;;5131858;28;20060;-68
2023/05/01 00:33:30;;;;;;;2.55;2.13;;;7.30;99.90;;;;;;5149797;28;20034;-70
2023/05/01 00:36:01;;;;;;;2.28;2.08;;;7.40;99.90;;;;;;5149505;28;20038;-69
2023/05/01 00:38:38;;;;;;;1.77;1.67;;;7.40;99.90;;;;;;5166043;28;20056;-69
2023/05/01 00:41:11;;;;;;;2.97;1.77;;;7.30;99.90;;;;;;5151200;28;20048;-71
2023/05/01 00:43:44;;;;;;;2.83;1.90;;;7.30;99.90;;;;;;5148836;28;20042;-69
2023/05/01 00:46:20;;;;;;;3.95;2.28;;;7.20;99.90;;;;;;5147336;28;20045;-65
2023/05/01 00:48:56;;;;;;;2.17;1.73;;;7.20;99.90;;;;;;5143089;28;20362;-71
2023/05/01 00:51:32;;;;;;;9.88;2.17;;;7.10;99.90;;;;;;5162696;28;20259;-69
2023/05/01 00:54:05;;;;;;;2.20;1.77;;;7.10;99.90;;;;;;5164828;28;20038;-72
2023/05/01 00:56:37;;;;;;;2.63;1.60;;;7.20;99.90;;;;;;5148523;28;20231;-68
2023/05/01 00:59:14;;;;;;;3.42;1.88;;;7.10;99.90;;;;;;5131689;28;20593;-70
2023/05/01 01:01:52;;;;;;;2.20;1.85;;;7.10;99.90;;;;;;5214847;23;20061;-69
2023/05/01 01:04:31;;;;;;;2.03;1.80;;;7.10;99.90;;;;;;5135489;28;20057;-67
2023/05/01 01:07:24;;;;;;;2.63;2.17;;;7.00;99.90;;;;;;5132675;28;20042;-68
2023/05/01 01:10:27;;;;;;;2.72;1.63;;;6.90;99.90;;;;;;5143301;28;20038;-70
2023/05/01 01:13:31;;;;;;;4.43;2.25;;;6.90;99.90;;;;;;5129621;28;20038;-69
2023/05/01 01:16:18;;;;;;;1.35;1.25;;;6.90;99.90;;;;;;5140718;28;20054;-66
2023/05/01 01:19:01;;;;;;;2.28;2.10;;;6.90;99.90;;;;;;5165617;28;20057;-68
2023/05/01 01:21:46;;;;;;;1.83;1.52;;;6.90;99.90;;;;;;5165419;28;20042;-70
2023/05/01 01:24:48;;;;;;;1.60;1.50;;;6.90;99.90;;;;;;5165450;28;20443;-68
2023/05/01 01:27:44;;;;;;;2.00;1.80;;;6.90;99.90;;;;;;5132240;28;20038;-69
2023/05/01 01:30:48;;;;;;;1.58;1.40;;;6.80;99.90;;;;;;5132444;28;20061;-70
2023/05/01 01:34:00;;;;;;;2.10;1.80;;;6.80;99.90;;;;;;5162188;28;20042;-67
2023/05/01 01:36:41;;;;;;;1.75;1.55;;;6.80;99.90;;;;;;5126792;28;20050;-70
2023/05/01 01:39:50;;;;;;;1.45;1.35;;;6.70;99.90;;;;;;5148700;28;20047;-68
2023/05/01 01:42:30;;;;;;;1.58;1.38;;;6.60;99.90;;;;;;5149480;28;20125;-69
2023/05/01 01:45:22;;;;;;;2.55;2.22;;;6.50;99.90;;;;;;5164968;28;20053;-70
2023/05/01 01:47:58;;;;;;;3.72;1.70;;;6.50;99.90;;;;;;5134127;28;20540;-66
2023/05/01 01:50:34;;;;;;;1.70;1.60;;;6.40;99.90;;;;;;5129438;28;20061;-68
2023/05/01 01:53:13;;;;;;;3.00;2.08;;;6.40;99.90;;;;;;5128495;28;20038;-68
2023/05/01 01:55:47;;;;;;;4.43;1.77;;;6.40;99.90;;;;;;5119511;28;20361;-66
2023/05/01 01:58:25;;;;;;;2.20;1.75;;;6.40;99.90;;;;;;5163442;28;20042;-69
2023/05/01 02:00:59;;;;;;;2.13;1.88;;;6.50;99.90;;;;;;5139428;28;20409;-69
2023/05/01 02:03:32;;;;;;;;;;;6.40;99.90;;;;;;5150401;28;20038;-67
2023/05/01 02:06:05;;;;;;;3.53;2.05;;;6.30;99.90;;;;;;5134110;28;20225;-69
2023/05/01 02:08:37;;;;;;;2.67;1.70;;;6.30;99.90;;;;;;5134042;28;20168;-70
2023/05/01 02:11:15;;;;;;;3.33;1.73;;;6.30;99.90;;;;;;5115313;28;20240;-69
2023/05/01 02:13:56;;;;;;;6.40;1.50;;;6.40;99.90;;;;;;5147544;28;20038;-68
2023/05/01 02:16:27;;;;;;;2.08;1.88;;;6.40;99.90;;;;;;5113363;28;20056;-67
2023/05/01 02:19:05;;;;;;;2.22;1.50;;;6.30;99.90;;;;;;5118111;28;20046;-70
2023/05/01 02:21:41;;;;;;;1.85;1.55;;;6.30;99.90;;;;;;5120414;28;20337;-69
2023/05/01 02:24:18;;;;;;;1.60;1.50;;;6.30;99.90;;;;;;5121541;28;20053;-70
2023/05/01 02:27:02;;;;;;;1.45;1.33;;;6.20;99.90;;;;;;5137386;28;20042;-70
2023/05/01 02:29:36;;;;;;;2.30;2.10;;;6.10;99.90;;;;;;5135974;28;20035;-65
2023/05/01 02:32:07;;;;;;;;;;;6.10;99.90;;;;;;5116556;28;20042;-65
2023/05/01 02:34:41;;;;;;;2.63;1.48;;;6.00;99.90;;;;;;5169964;28;19917;-70
2023/05/01 02:37:17;;;;;;;3.95;1.90;;;6.00;99.90;;;;;;5136865;28;20042;-70
2023/05/01 02:39:48;;;;;;;1.95;1.58;;;5.90;99.90;;;;;;5145654;28;20042;-69
2023/05/01 02:42:32;;;;;;;1.38;1.27;;;5.80;99.90;;;;;;5152634;28;20320;-68
2023/05/01 02:45:19;;;;;;;2.25;1.50;;;5.70;99.90;;;;;;5121053;28;20060;-72
2023/05/01 02:47:58;;;;;;;1.80;1.58;;;5.70;99.90;;;;;;5100396;28;20051;-70
2023/05/01 02:50:36;;;;;;;1.50;1.40;;;5.60;99.90;;;;;;5105300;28;20039;-63
2023/05/01 02:53:19;;;;;;;1.67;1.58;;;5.60;99.90;;;;;;5136347;28;20034;-70
2023/05/01 02:55:51;;;;;;;1.75;1.30;;;5.50;99.90;;;;;;5153629;28;20203;-69
2023/05/01 02:58:23;;;;;;;2.22;1.67;;;5.50;99.90;;;;;;5136682;28;20046;-71
2023/05/01 03:00:56;;;;;;;1.55;1.45;;;5.50;99.90;;;;;;5118445;28;20042;-70
2023/05/01 03:03:27;;;;;;;1.88;1.58;;;5.50;99.90;;;;;;5147216;28;20031;-69
2023/05/01 03:05:59;;;;;;;3.40;1.92;;;5.50;99.90;;;;;;5133186;28;20776;-70
2023/05/01 03:08:36;;;;;;;1.77;1.20;;;5.50;99.90;;;;;;5152067;28;20030;-71
2023/05/01 03:11:08;;;;;;;2.45;1.73;;;5.50;99.90;;;;;;5148296;28;20034;-69
2023/05/01 03:13:51;;;;;;;1.95;1.67;;;5.40;99.90;;;;;;5135256;28;20045;-69
2023/05/01 03:16:30;;;;;;;1.85;1.40;;;5.40;99.90;;;;;;5147921;28;20042;-65
2023/05/01 03:19:04;;;;;;;2.45;1.80;;;5.40;99.90;;;;;;5153246;28;20046;-70
2023/05/01 03:21:36;;;;;;;;;;;5.30;99.90;;;;;;5151568;28;20044;-71
2023/05/01 03:24:07;;;;;;;2.58;1.73;;;5.40;99.90;;;;;;5135175;28;19918;-68
2023/05/01 03:26:43;;;;;;;2.63;1.65;;;5.30;99.90;;;;;;5130991;28;20686;-67
2023/05/01 03:29:17;;;;;;;1.55;1.45;;;5.30;99.90;;;;;;5146712;28;20034;-70
2023/05/01 03:31:51;;;;;;;;;;;5.20;99.90;;;;;;5127210;28;20057;-69
2023/05/01 03:34:23;;;;;;;2.33;1.67;;;5.20;99.90;;;;;;5118580;28;19924;-69
2023/05/01 03:36:57;;;;;;;1.83;1.30;;;5.20;99.90;;;;;;5136038;28;20046;-70
2023/05/01 03:39:29;;;;;;;2.17;1.50;;;5.20;99.90;;;;;;5136068;28;20555;-69
2023/05/01 03:42:01;;;;;;;1.63;1.30;;;5.10;99.90;;;;;;5151601;28;20041;-68
2023/05/01 03:44:35;;;;;;;1.73;1.63;;;5.10;99.90;;;;;;5151565;28;20057;-69
2023/05/01 03:47:10;;;;;;;4.38;2.08;;;5.10;99.90;;;;;;5132365;28;20692;-70
2023/05/01 03:49:44;;;;;;;1.92;1.60;;;5.10;99.90;;;;;;5134410;28;20489;-70
2023/05/01 03:52:19;;;;;;;1.40;1.30;;;5.10;99.90;;;;;;5151624;28;20056;-67
2023/05/01 03:54:50;;;;;;;1.70;1.52;;;5.20;99.90;;;;;;5151962;28;20034;-69
2023/05/01 03:57:22;;;;;;;2.08;1.85;;;5.20;99.90;;;;;;5130801;28;20035;-71
2023/05/01 03:59:55;;;;;;;2.13;1.25;;;5.30;99.90;;;;;;5130894;28;20039;-67
2023/05/01 04:02:26;;;;;;;2.15;2.03;;;5.50;99.90;;;;;;5148640;28;20050;-70
2023/05/01 04:04:58;;;;;;;2.38;1.60;;;5.60;99.90;;;;;;5133514;28;20063;-68
2023/05/01 04:07:36;;;;;;;2.15;1.88;;;5.70;99.90;;;;;;5106463;28;20056;-72
2023/05/01 04:10:08;;;;;;;1.90;1.70;;;5.90;99.90;;;;;;5115867;28;20047;-68
2023/05/01 04:12:42;;;;;;;2.13;1.50;;;6.00;99.90;;;;;;5099680;28;20046;-70
2023/05/01 04:15:14;;;;;;;2.30;2.10;;;6.00;99.90;;;;;;5113241;28;20038;-68
2023/05/01 04:17:46;;;;;;;2.15;1.92;;;6.10;99.90;;;;;;5132369;28;20057;-68
2023/05/01 04:20:22;;;;;;;1.77;1.67;;;6.10;99.90;;;;;;5131654;28;20030;-69
2023/05/01 04:22:56;;;;;;;2.35;1.60;;;6.20;99.90;;;;;;5095580;29;20039;-69
2023/05/01 04:25:30;;;;;;;1.65;1.52;;;6.20;99.90;;;;;;5082258;28;20255;-71
2023/05/01 04:28:03;;;;;;;6.05;2.28;;;6.20;99.90;;;;;;5112705;28;20250;-69
2023/05/01 04:30:41;;;;;;;2.72;1.70;;;6.30;99.90;;;;;;5097078;28;20053;-67
2023/05/01 04:33:15;;;;;;;1.70;1.60;;;6.40;99.90;;;;;;5111504;28;20560;-70
2023/05/01 04:35:47;;;;;;;;;;;6.40;99.90;;;;;;5128462;28;20342;-70
2023/05/01 04:38:21;;;;;;;1.73;1.48;;;6.60;99.90;;;;;;5111706;29;19918;-70
2023/05/01 04:40:55;;;;;;;2.00;1.80;;;6.90;99.90;;;;;;5078818;29;20366;-69
2023/05/01 04:43:32;;;;;;;2.08;1.63;;;7.10;99.90;;;;;;5078504;29;20049;-70
2023/05/01 04:46:04;;;;;;;3.08;2.58;;;7.50;99.90;;;;;;5106103;28;20077;-69
2023/05/01 04:48:38;;;;;;;2.72;2.13;;;8.10;99.90;;;;;;5130559;28;20030;-69
2023/05/01 04:51:15;;;;;;;3.38;2.10;;;8.70;99.90;;;;;;5114107;28;20051;-68
2023/05/01 04:53:49;;;;;;;2.83;2.10;;;9.30;99.90;;;;;;5113750;28;20053;-69
2023/05/01 04:56:20;;;;;;;2.42;1.85;;;9.60;99.90;;;;;;5129509;28;20050;-70
2023/05/01 04:58:55;;;;;;;1.75;1.65;;;9.80;99.90;;;;;;5128154;28;20049;-67
2023/05/01 05:01:26;;;;;;;2.08;1.77;;;10.00;99.90;;;;;;5126531;28;20064;-69
2023/05/01 05:03:58;;;;;;;4.15;2.50;;;10.10;99.90;;;;;;5130410;28;20043;-70
2023/05/01 05:06:32;;;;;;;1.83;1.73;;;10.20;99.90;;;;;;5127808;28;20583;-66
2023/05/01 05:09:04;;;;;;;2.45;2.25;;;10.60;99.90;;;;;;5140923;28;20037;-66
2023/05/01 05:11:42;;;;;;;4.00;2.55;;;10.80;99.90;;;;;;5132328;28;20474;-66
2023/05/01 05:14:13;;;;;;;2.55;2.35;;;11.10;99.90;;;;;;5134467;28;20053;-69
2023/05/01 05:16:50;;;;;;;2.20;2.00;;;11.40;99.90;;;;;;5113711;28;20072;-69
2023/05/01 05:19:22;;;;;;;5.35;2.58;;;11.50;99.90;;;;;;5132641;28;20060;-70
2023/05/01 05:21:56;;;;;;;3.15;2.38;;;11.70;99.90;;;;;;5132372;28;20046;-69
2023/05/01 05:24:29;;;;;;;3.10;1.90;;;11.90;99.90;;;;;;5126757;28;20047;-70
2023/05/01 05:27:01;;;;;;;4.20;2.60;;;12.30;99.90;;;;;;5131210;28;20230;-65
2023/05/01 05:29:35;;;;;;;3.08;2.20;;;12.60;99.90;;;;;;5149322;28;20030;-69
2023/05/01 05:32:10;;;;;;;2.45;2.25;;;12.90;99.90;;;;;;5128970;28;20044;-68
2023/05/01 05:34:42;;;;;;;2.85;2.53;;;13.20;99.90;;;;;;5122393;28;20488;-70
2023/05/01 05:37:19;;;;;;;2.25;2.05;;;13.40;99.90;;;;;;5148331;28;20038;-67
2023/05/01 05:39:52;;;;;;;2.47;2.28;;;13.60;99.90;;;;;;5149022;28;20049;-67
2023/05/01 05:42:24;;;;;;;2.30;2.00;;;13.70;99.90;;;;;;5150860;28;20034;-67
2023/05/01 05:44:55;;;;;;;5.10;2.22;;;13.70;99.90;;;;;;5150098;28;20039;-70
2023/05/01 05:47:27;;;;;;;2.67;2.20;;;13.80;99.90;;;;;;5131042;28;20041;-66
2023/05/01 05:49:58;;;;;;;2.50;2.28;;;13.90;99.90;;;;;;5148559;28;20030;-69
2023/05/01 05:52:30;;;;;;;2.30;2.10;;;14.00;99.90;;;;;;5149071;28;20042;-67
2023/05/01 05:55:02;;;;;;;2.80;2.42;;;14.10;99.90;;;;;;5150582;28;20049;-72
2023/05/01 05:57:37;;;;;;;2.72;2.15;;;14.30;99.90;;;;;;5129986;28;20045;-70
2023/05/01 06:00:09;;;;;;;3.08;2.30;;;14.30;99.90;;;;;;5127683;28;20057;-69
2023/05/01 06:02:43;;;;;;;2.67;2.05;;;14.20;99.90;;;;;;5137332;28;20251;-68
2023/05/01 06:05:20;;;;;;;3.83;2.60;;;14.20;99.90;;;;;;5123049;28;20054;-64
2023/05/01 06:07:51;;;;;;;3.63;2.30;;;14.50;99.90;;;;;;5147634;28;20040;-70
2023/05/01 06:10:23;;;;;;;2.88;2.55;;;14.70;99.90;;;;;;5120035;28;20144;-72
2023/05/01 06:12:59;;;;;;;2.97;2.20;;;14.90;1.00;;;;;;5136583;28;20054;-68
2023/05/01 06:15:31;;;;;;;4.00;2.50;;;15.40;1.00;;;;;;5118937;28;20038;-71
2023/05/01 06:18:03;;;;;;;2.53;2.08;;;15.60;1.00;;;;;;5137683;28;20044;-70
2023/05/01 06:20:39;;;;;;;2.40;2.20;;;16.00;1.00;;;;;;5120942;28;20050;-69
2023/05/01 06:23:12;;;;;;;3.83;3.13;;;16.20;1.00;;;;;;5153573;28;20288;-69
2023/05/01 06:25:44;;;;;;;2.00;1.80;;;16.30;99.90;;;;;;5121523;28;20437;-67
2023/05/01 06:28:23;;;;;;;7.47;2.63;;;16.60;1.00;;;;;;5141490;28;20029;-67
2023/05/01 06:30:55;;;;;;;4.65;2.85;;;17.00;1.00;;;;;;5139883;28;20064;-71
2023/05/01 06:33:28;;;;;;;2.90;2.47;;;17.20;99.90;;;;;;5162086;28;20051;-69
2023/05/01 06:36:03;;;;;;;3.30;2.38;;;17.30;1.00;;;;;;5152642;28;20468;-70
2023/05/01 06:38:34;;;;;;;4.55;3.03;;;17.30;99.90;;;;;;5153467;28;20231;-68
2023/05/01 06:41:06;;;;;;;3.33;2.65;;;17.10;99.90;;;;;;5144052;28;20046;-67
2023/05/01 06:43:42;;;;;;;3.83;2.72;;;17.40;99.90;;;;;;5142980;28;20031;-71
2023/05/01 06:46:17;;;;;;;3.10;2.80;;;17.40;99.90;;;;;;5150713;28;20031;-66
2023/05/01 06:48:48;;;;;;;2.70;2.20;;;16.80;99.90;;;;;;5136331;28;20034;-68
2023/05/01 06:51:23;;;;;;;3.42;2.67;;;16.40;99.90;;;;;;5152336;28;20035;-69
2023/05/01 06:53:57;;;;;;;;;;;16.50;99.90;;;;;;5150182;28;20038;-68
2023/05/01 06:56:28;;;;;;;3.17;2.55;;;16.50;99.90;;;;;;5120297;28;19931;-68
2023/05/01 06:59:02;;;;;;;3.25;2.72;;;16.60;99.90;;;;;;5147828;28;20549;-71
2023/05/01 07:01:34;;;;;;;2.95;2.65;;;16.50;99.90;;;;;;5136628;28;20046;-71
2023/05/01 07:04:11;;;;;;;3.63;2.72;;;16.50;99.90;;;;;;5142628;28;20460;-67
2023/05/01 07:06:42;;;;;;;3.15;2.55;;;16.40;99.90;;;;;;5091719;28;20058;-66
2023/05/01 07:09:15;;;;;;;4.63;3.00;;;16.10;99.90;;;;;;5139924;28;20042;-68
2023/05/01 07:11:48;;;;;;;4.50;3.20;;;16.30;99.90;;;;;;5124166;28;20061;-68
2023/05/01 07:14:21;;;;;;;5.30;2.72;;;16.40;1.00;;;;;;5132352;28;20085;-70
2023/05/01 07:16:55;;;;;;;3.92;3.33;;;16.30;99.90;;;;;;5148198;28;20040;-71
2023/05/01 07:19:27;;;;;;;4.97;3.20;;;15.90;99.90;;;;;;5146839;28;20034;-70
2023/05/01 07:21:58;;;;;;;753.38;390.85;;;16.10;99.90;;;;;;5146809;28;20116;-68
2023/05/01 07:24:30;;;;;;;958.45;446.33;;;15.40;99.90;;;;;;5135059;28;20054;-70
2023/05/01 07:27:04;;;;;;;825.53;406.23;;;14.80;99.90;;;;;;5149830;28;20045;-71
2023/05/01 07:29:38;;;;;;;986.47;520.58;;;14.80;99.90;;;;;;5132429;28;20255;-69
2023/05/01 07:32:11;;;;;;;1099.88;668.65;;;14.90;99.90;;;;;;5128565;28;20054;-69
2023/05/01 07:34:43;;;;;;;694.65;416.40;;;15.20;99.90;;;;;;5140798;28;20034;-68
2023/05/01 07:37:15;;;;;;;832.38;449.02;;;15.60;99.90;;;;;;5135830;28;20260;-70
2023/05/01 07:39:49;;;;;;;134.57;101.28;;;16.10;99.90;;;;;;5153762;28;20331;-72
2023/05/01 07:42:23;;;;;;;186.95;169.43;;;16.10;99.90;;;;;;5135452;28;20042;-69
2023/05/01 07:44:57;;;;;;;28.27;25.60;;;16.20;99.90;;;;;;5151633;28;20030;-71
2023/05/01 07:47:29;;;;;;;26.30;24.08;;;16.40;99.90;;;;;;5132420;28;20048;-70
2023/05/01 07:50:01;;;;;;;9.13;8.25;;;16.40;99.90;;;;;;5150232;28;20046;-69
2023/05/01 07:52:36;;;;;;;6.22;5.63;;;16.30;99.90;;;;;;5152179;28;20030;-70
2023/05/01 07:55:10;;;;;;;4.18;3.70;;;16.50;99.90;;;;;;5117236;28;20367;-69
2023/05/01 07:57:44;;;;;;;7.53;6.75;;;16.60;99.90;;;;;;5132332;28;20403;-69
2023/05/01 08:00:17;;;;;;;37.50;34.17;;;16.80;99.90;;;;;;5109210;28;20077;-70
2023/05/01 08:02:50;;;;;;;8.77;7.47;;;16.50;99.90;;;;;;5114964;28;20047;-70
2023/05/01 08:05:24;;;;;;;3.22;2.63;;;16.80;99.90;;;;;;5105502;28;20046;-68
2023/05/01 08:07:56;;;;;;;4.70;4.18;;;16.50;99.90;;;;;;5126954;28;20057;-66
2023/05/01 08:10:28;;;;;;;15.55;14.05;;;17.10;99.90;;;;;;5118067;28;20042;-70
2023/05/01 08:12:59;;;;;;;4.30;3.85;;;17.50;99.90;;;;;;5158172;28;20046;-70
2023/05/01 08:15:31;;;;;;;7.63;6.72;;;16.80;99.90;;;;;;5131259;28;20204;-71
2023/05/01 08:18:02;;;;;;;4.93;4.50;;;16.50;99.90;;;;;;5129848;28;20030;-69
2023/05/01 08:20:39;;;;;;;15.95;5.28;;;16.40;99.90;;;;;;5142071;28;20637;-70
2023/05/01 08:23:10;;;;;;;5.82;4.90;;;16.80;99.90;;;;;;5139943;28;20350;-68
2023/05/01 08:25:45;;;;;;;4.72;3.65;;;17.20;99.90;;;;;;5141166;28;20061;-71
2023/05/01 08:28:20;;;;;;;4.13;3.28;;;18.10;99.90;;;;;;5140361;28;20048;-70
2023/05/01 08:30:51;;;;;;;3.60;3.30;;;18.40;99.90;;;;;;5125972;28;20512;-70
2023/05/01 08:33:24;;;;;;;4.10;2.95;;;18.10;99.90;;;;;;5133733;28;20037;-69
2023/05/01 08:35:56;;;;;;;3.92;3.47;;;17.80;99.90;;;;;;5128106;28;20042;-70
2023/05/01 08:38:27;;;;;;;3.58;3.25;;;18.00;99.90;;;;;;5144986;28;20042;-70
2023/05/01 08:41:04;;;;;;;3.72;2.90;;;18.30;99.90;;;;;;5147112;28;20064;-66
2023/05/01 08:43:42;;;;;;;3.75;3.13;;;18.30;99.90;;;;;;5137971;28;20049;-69
2023/05/01 08:46:25;;;;;;;4.10;3.63;;;18.20;99.90;;;;;;5134474;28;20050;-70
2023/05/01 08:48:58;;;;;;;4.90;4.10;;;18.20;99.90;;;;;;5128759;28;20043;-70
2023/05/01 08:51:37;;;;;;;18.88;16.75;;;18.10;99.90;;;;;;5115507;28;20133;-69
2023/05/01 08:54:09;;;;;;;52.20;47.17;;;17.90;99.90;;;;;;5126789;28;20045;-71
2023/05/01 08:56:45;;;;;;;13.20;11.98;;;18.40;99.90;;;;;;5142164;28;20049;-68
2023/05/01 08:59:25;;;;;;;12.57;11.45;;;18.50;99.90;;;;;;5126926;28;20506;-69
2023/05/01 09:02:03;;;;;;;6.90;6.32;;;18.20;99.90;;;;;;5125586;28;20431;-68
2023/05/01 09:04:40;;;;;;;5.43;4.55;;;18.60;99.90;;;;;;5122510;28;20050;-71
2023/05/01 09:07:11;;;;;;;5.93;5.35;;;18.70;99.90;;;;;;5113602;28;20046;-70
2023/05/01 09:09:43;;;;;;;4.82;4.20;;;18.70;99.90;;;;;;5113363;28;20045;-70
2023/05/01 09:12:27;;;;;;;5.85;5.25;;;18.60;99.90;;;;;;5112365;28;20056;-66
2023/05/01 09:15:03;;;;;;;654.87;374.63;;;18.70;99.90;;;;;;5144135;28;20042;-70
2023/05/01 09:17:36;;;;;;;152.52;108.68;;;18.90;99.90;;;;;;5137714;28;20026;-70
2023/05/01 09:20:16;;;;;;;460.25;352.40;;;18.80;99.90;;;;;;5130054;28;20034;-67
2023/05/01 09:22:51;;;;;;;405.00;312.65;;;18.70;99.90;;;;;;5117287;28;20046;-66
2023/05/01 09:25:22;;;;;;;;;;;19.00;99.90;;;;;;5114006;28;20042;-71
2023/05/01 09:27:56;;;;;;;107.35;96.82;;;19.20;99.90;;;;;;5123819;28;19913;-67
2023/05/01 09:30:36;;;;;;;52.85;48.22;;;19.40;99.90;;;;;;5110164;28;20049;-69
2023/05/01 09:33:13;;;;;;;8.35;7.57;;;19.00;99.90;;;;;;5142964;28;20043;-68
2023/05/01 09:35:54;;;;;;;10.80;9.65;;;19.00;1.00;;;;;;5140892;28;20054;-70
2023/05/01 09:38:29;;;;;;;4.65;4.07;;;19.20;23.90;;;;;;5128398;28;20046;-68
2023/05/01 09:41:06;;;;;;;2.38;2.10;;;19.60;82.60;;;;;;5110223;28;20095;-69
2023/05/01 09:43:38;;;;;;;3.22;1.80;;;20.30;75.10;;;;;;5140805;28;20031;-68
2023/05/01 09:46:14;;;;;;;3.95;2.28;;;20.30;99.90;;;;;;5137408;28;20061;-70
2023/05/01 09:49:02;;;;;;;2.42;2.22;;;19.90;26.60;;;;;;5136671;28;21272;-68
2023/05/01 09:51:34;;;;;;;3.38;3.10;;;19.50;1.00;;;;;;5140735;28;20691;-70
2023/05/01 09:54:18;;;;;;;3.15;2.90;;;19.20;1.00;;;;;;5134103;28;20053;-67
2023/05/01 09:56:53;;;;;;;2.50;2.30;;;20.10;1.00;;;;;;5134936;28;20046;-68
2023/05/01 09:59:31;;;;;;;2.30;2.10;;;20.70;1.00;;;;;;5112088;28;20042;-68
2023/05/01 10:02:02;;;;;;;2.90;2.10;;;20.20;1.00;;;;;;5140143;28;20038;-70
2023/05/01 10:04:34;;;;;;;1.90;1.80;;;20.10;1.00;;;;;;5108056;28;20054;-70
2023/05/01 10:07:14;;;;;;;2.33;1.90;;;20.40;1.00;;;;;;5113647;28;20507;-68
2023/05/01 10:09:46;;;;;;;2.20;1.70;;;20.00;95.90;;;;;;5129318;28;20065;-66
2023/05/01 10:12:29;;;;;;;3.40;2.05;;;19.80;99.90;;;;;;5137757;28;20046;-70
2023/05/01 10:15:03;;;;;;;2.70;1.83;;;20.40;1.00;;;;;;5127276;28;20312;-68
2023/05/01 10:17:35;;;;;;;2.00;1.45;;;20.80;1.00;;;;;;5131603;28;20324;-69
2023/05/01 10:20:08;;;;;;;2.10;1.85;;;20.70;1.00;;;;;;5134106;28;20134;-70
2023/05/01 10:22:40;;;;;;;4.95;2.05;;;20.60;1.00;;;;;;5133975;28;20248;-69
2023/05/01 10:25:12;;;;;;;1.98;1.77;;;20.60;1.00;;;;;;5114036;28;20448;-66
2023/05/01 10:27:43;;;;;;;2.17;1.95;;;21.20;1.00;;;;;;5141025;28;20033;-66
2023/05/01 10:30:17;;;;;;;2.35;2.15;;;21.20;1.00;;;;;;5130563;28;20038;-67
2023/05/01 10:32:49;;;;;;;2.42;2.22;;;21.50;1.00;;;;;;5112121;28;20042;-69
2023/05/01 10:35:26;;;;;;;1.60;1.50;;;21.40;1.00;;;;;;5129539;28;20051;-68
2023/05/01 10:38:04;;;;;;;2.00;1.80;;;22.00;1.00;;;;;;5140240;28;20038;-71
2023/05/01 10:40:40;;;;;;;2.28;1.77;;;22.80;99.90;;;;;;5144498;28;20038;-69
2023/05/01 10:43:31;;;;;;;1.73;1.63;;;22.70;99.90;;;;;;5131994;28;20048;-65
2023/05/01 10:46:08;;;;;;;1.65;1.55;;;21.30;1.00;;;;;;5124196;28;20038;-70
2023/05/01 10:48:41;;;;;;;2.47;1.90;;;22.00;1.00;;;;;;5148191;28;20238;-70
2023/05/01 10:51:22;;;;;;;1.75;1.63;;;22.90;99.90;;;;;;5144284;28;20112;-68
2023/05/01 10:54:12;;;;;;;2.00;1.30;;;23.70;92.50;;;;;;5143725;28;20358;-68
2023/05/01 10:56:46;;;;;;;1.60;1.50;;;24.20;4.80;;;;;;5144793;28;20042;-69
2023/05/01 10:59:21;;;;;;;1.35;1.25;;;24.30;1.00;;;;;;5127854;28;20264;-67
2023/05/01 11:01:53;;;;;;;1.63;1.33;;;24.00;1.00;;;;;;5130537;28;20073;-67
2023/05/01 11:04:25;;;;;;;2.40;1.70;;;23.90;1.00;;;;;;5133007;28;20386;-67
2023/05/01 11:07:09;;;;;;;1.70;1.60;;;23.40;1.00;;;;;;5141795;28;20461;-67
2023/05/01 11:09:45;;;;;;;1.58;1.48;;;23.50;1.00;;;;;;5141021;28;20054;-70
2023/05/01 11:12:45;;;;;;;1.92;1.73;;;22.90;99.90;;;;;;5142234;28;20347;-66
2023/05/01 11:15:27;;;;;;;1.60;1.50;;;22.60;99.90;;;;;;5140697;28;20034;-68
2023/05/01 11:18:02;;;;;;;2.17;1.63;;;23.60;99.90;;;;;;5130982;28;20042;-67
2023/05/01 11:20:39;;;;;;;1.60;1.50;;;24.20;99.90;;;;;;5143032;28;20331;-69
2023/05/01 11:23:19;;;;;;;1.75;1.65;;;24.50;99.90;;;;;;5127656;28;20294;-71
2023/05/01 11:26:02;;;;;;;2.03;1.83;;;24.40;99.90;;;;;;5140951;28;20046;-68
2023/05/01 11:28:37;;;;;;;1.98;1.60;;;25.10;99.90;;;;;;5159480;28;20042;-69
2023/05/01 11:31:19;;;;;;;1.60;1.50;;;23.90;99.90;;;;;;5125917;28;20042;-68
2023/05/01 11:33:51;;;;;;;2.22;1.50;;;24.40;99.90;;;;;;5114761;28;20035;-70
2023/05/01 11:36:25;;;;;;;2.05;1.85;;;25.10;99.90;;;;;;5129230;28;20056;-69
2023/05/01 11:39:00;;;;;;;8.13;2.33;;;24.70;99.90;;;;;;5135319;28;20372;-69
2023/05/01 11:41:34;;;;;;;3.00;1.50;;;24.40;99.90;;;;;;5118586;28;20058;-69
2023/05/01 11:44:11;;;;;;;2.05;1.63;;;23.30;99.90;;;;;;5131174;28;20122;-68
2023/05/01 11:46:45;;;;;;;1.50;1.40;;;22.90;99.90;;;;;;5133306;28;20038;-65
2023/05/01 11:49:28;;;;;;;1.25;1.15;;;22.30;99.90;;;;;;5151221;28;20045;-69
2023/05/01 11:51:59;;;;;;;1.92;1.83;;;22.90;99.90;;;;;;5152559;28;20042;-69
2023/05/01 11:54:52;;;;;;;2.17;1.52;;;21.70;99.90;;;;;;5117990;28;20657;-68
2023/05/01 11:57:23;;;;;;;2.25;1.60;;;20.90;99.90;;;;;;5145849;28;20043;-68
2023/05/01 11:59:55;;;;;;;1.88;1.67;;;20.80;99.90;;;;;;5113666;28;20283;-65
2023/05/01 12:02:32;;;;;;;1.50;1.30;;;21.80;99.90;;;;;;5146439;28;20468;-68
2023/05/01 12:05:16;;;;;;;1.85;1.75;;;21.20;99.90;;;;;;5130570;28;20629;-70
2023/05/01 12:07:49;;;;;;;2.90;2.00;;;21.30;99.90;;;;;;5105227;28;20058;-67
2023/05/01 12:10:24;;;;;;;2.00;1.80;;;22.50;99.90;;;;;;5131034;28;20042;-69
2023/05/01 12:12:59;;;;;;;1.92;1.63;;;23.00;99.90;;;;;;5100501;28;20050;-66
2023/05/01 12:15:36;;;;;;;1.90;1.80;;;21.70;99.90;;;;;;5131485;28;20066;-69
2023/05/01 12:18:08;;;;;;;2.03;1.70;;;21.40;99.90;;;;;;5115563;28;20035;-71
2023/05/01 12:20:53;;;;;;;1.67;1.58;;;21.80;99.90;;;;;;5115581;28;20051;-70
2023/05/01 12:23:37;;;;;;;1.55;1.25;;;21.80;99.90;;;;;;5115483;28;20326;-66
2023/05/01 12:26:25;;;;;;;1.60;1.50;;;22.90;99.90;;;;;;5115274;28;20031;-69
2023/05/01 12:29:00;;;;;;;1.63;1.42;;;24.60;1.00;;;;;;5115485;28;20027;-69
2023/05/01 12:31:33;;;;;;;2.10;1.52;;;22.60;10.30;;;;;;5088938;28;20038;-68
2023/05/01 12:34:13;;;;;;;1.83;1.38;;;23.00;1.00;;;;;;5098320;28;20049;-69
2023/05/01 12:36:58;;;;;;;1.30;1.20;;;24.20;63.90;;;;;;5114969;28;20053;-68
2023/05/01 12:39:41;;;;;;;1.50;1.40;;;25.10;99.90;;;;;;5097427;28;20046;-69
2023/05/01 12:42:14;;;;;;;1.50;1.40;;;25.00;99.90;;;;;;5098327;28;20083;-69
2023/05/01 12:44:45;;;;;;;1.58;1.48;;;23.60;1.00;;;;;;5115462;28;20053;-67
2023/05/01 12:47:19;;;;;;;1.60;1.48;;;22.60;21.90;;;;;;5122605;28;20562;-67
2023/05/01 12:50:07;;;;;;;1.58;1.38;;;22.00;1.00;;;;;;5082133;29;20042;-68
2023/05/01 12:52:40;;;;;;;2.13;1.85;;;21.60;99.90;;;;;;5095542;29;20043;-69
2023/05/01 12:55:12;;;;;;;2.15;1.45;;;21.30;99.90;;;;;;5079125;29;20049;-68
2023/05/01 12:57:55;;;;;;;1.90;1.80;;;21.10;99.90;;;;;;5076729;28;20335;-66
2023/05/01 13:00:43;;;;;;;1.77;1.65;;;21.30;99.90;;;;;;5127504;28;20031;-68
2023/05/01 13:03:26;;;;;;;2.20;1.60;;;21.40;99.90;;;;;;5135761;28;20043;-69
2023/05/01 13:06:04;;;;;;;1.50;1.40;;;21.70;99.90;;;;;;5160941;28;20327;-65
2023/05/01 13:08:41;;;;;;;5.20;1.60;;;21.60;99.90;;;;;;5156652;28;20374;-68
2023/05/01 13:11:20;;;;;;;1.70;1.52;;;21.80;99.90;;;;;;5173742;28;20064;-65
2023/05/01 13:13:54;;;;;;;1.42;1.33;;;22.40;79.70;;;;;;5157168;28;20038;-68
2023/05/01 13:16:27;;;;;;;;;;;22.80;99.20;;;;;;5156663;28;20104;-66
2023/05/01 13:18:58;;;;;;;5.22;1.95;;;23.00;1.00;;;;;;5172421;28;19914;-69
2023/05/01 13:21:38;;;;;;;2.47;1.98;;;22.00;99.90;;;;;;5156185;28;20044;-67
2023/05/01 13:24:12;;;;;;;1.58;1.48;;;21.90;1.00;;;;;;5172535;28;20052;-69
2023/05/01 13:26:46;;;;;;;;;;;21.70;1.00;;;;;;5172989;28;20254;-68
2023/05/01 13:29:27;;;;;;;2.63;1.58;;;20.80;1.00;;;;;;5172575;28;20198;-70
2023/05/01 13:32:05;;;;;;;2.22;1.60;;;20.30;1.00;;;;;;5172028;28;20026;-71
2023/05/01 13:34:41;;;;;;;2.08;1.65;;;20.40;1.00;;;;;;5172430;28;20336;-68
2023/05/01 13:37:18;;;;;;;1.50;1.40;;;20.70;1.00;;;;;;5172534;28;20030;-68
2023/05/01 13:39:58;;;;;;;1.92;1.63;;;20.40;1.00;;;;;;5156127;28;20044;-67